Time;durP1;ratioP1;P1;durP2;ratioP2;P2;SDS_P1;SDS_P2;PMS_P1;PMS_P2;Temp;Humidity;BMP_temperature;BMP_pressure;BME280_temperature;BME280_humidity;BME280_pressure;Samples;Min_cycle;Max_cycle;Signal;HPM_P1;HPM_P2
2022/08/06 00:02:28;;;;;;;5.87;2.23;;;20.70;60.50;;;;;;5056082;28;20441;-51
2022/08/06 00:04:59;;;;;;;3.03;1.60;;;20.70;60.80;;;;;;5069312;28;20462;-51
2022/08/06 00:07:26;;;;;;;2.67;1.90;;;20.70;60.80;;;;;;5055289;28;20831;-51
2022/08/06 00:09:56;;;;;;;7.50;1.87;;;20.70;60.80;;;;;;5039486;28;20511;-51
2022/08/06 00:12:32;;;;;;;3.10;1.93;;;;;;;;;;5052458;28;20457;-51
2022/08/06 00:15:05;;;;;;;2.07;1.80;;;20.60;61.20;;;;;;5055578;28;20815;-51
2022/08/06 00:17:43;;;;;;;1.50;1.40;;;20.60;61.40;;;;;;5055006;28;20461;-51
2022/08/06 00:20:15;;;;;;;2.37;2.10;;;20.60;61.30;;;;;;5053456;28;21016;-51
2022/08/06 00:22:55;;;;;;;4.37;2.10;;;20.50;61.30;;;;;;5053679;28;21003;-51
2022/08/06 00:25:22;;;;;;;3.00;1.90;;;20.50;61.20;;;;;;5052049;28;20462;-51
2022/08/06 00:27:51;;;;;;;2.57;1.73;;;20.50;61.40;;;;;;5039108;28;20461;-51
2022/08/06 00:30:18;;;;;;;2.23;1.70;;;20.40;61.60;;;;;;5052260;28;20462;-51
2022/08/06 00:32:49;;;;;;;1.87;1.67;;;20.40;61.50;;;;;;5042576;28;20461;-51
2022/08/06 00:35:20;;;;;;;1.90;1.50;;;20.40;61.60;;;;;;5055339;28;20500;-51
2022/08/06 00:37:49;;;;;;;2.90;1.50;;;20.30;61.50;;;;;;5053188;28;20533;-51
2022/08/06 00:40:27;;;;;;;2.50;1.60;;;20.30;61.60;;;;;;5057949;28;20590;-51
2022/08/06 00:42:57;;;;;;;2.37;1.60;;;20.30;61.70;;;;;;5052175;28;20463;-51
2022/08/06 00:45:23;;;;;;;2.03;1.60;;;20.20;61.60;;;;;;5055164;28;20554;-51
2022/08/06 00:47:54;;;;;;;3.00;1.50;;;20.20;61.60;;;;;;5054369;28;20489;-51
2022/08/06 00:50:30;;;;;;;3.67;1.73;;;20.20;61.40;;;;;;5055044;28;21108;-51
2022/08/06 00:53:02;;;;;;;2.23;1.60;;;20.10;61.40;;;;;;5053700;28;20460;-51
2022/08/06 00:55:30;;;;;;;3.40;1.63;;;20.10;61.50;;;;;;5052417;28;20465;-51
2022/08/06 00:58:04;;;;;;;2.83;1.70;;;20.10;60.30;;;;;;5050168;28;21026;-51
2022/08/06 01:00:32;;;;;;;1.70;1.57;;;20.00;59.70;;;;;;5053978;28;20493;-51
2022/08/06 01:03:06;;;;;;;1.80;1.60;;;20.00;59.60;;;;;;5041012;28;21046;-51
2022/08/06 01:05:53;;;;;;;2.40;1.40;;;20.00;59.50;;;;;;5067684;28;20744;-51
2022/08/06 01:08:40;;;;;;;2.50;1.40;;;20.00;60.00;;;;;;5055670;28;20460;-51
2022/08/06 01:11:07;;;;;;;1.67;1.40;;;20.00;59.90;;;;;;5049523;28;20457;-51
2022/08/06 01:13:34;;;;;;;1.60;1.50;;;20.00;60.20;;;;;;5041292;28;20462;-51
2022/08/06 01:17:02;;;;;;;2.57;1.90;;;20.00;59.90;;;;;;5060321;28;20813;-51
2022/08/06 01:19:51;;;;;;;3.10;1.70;;;19.90;60.40;;;;;;5030947;28;20504;-51
2022/08/06 01:23:08;;;;;;;2.20;1.60;;;20.00;60.30;;;;;;5069430;28;20523;-51
2022/08/06 01:26:33;;;;;;;3.50;1.57;;;19.90;59.90;;;;;;5059764;28;20468;-51
2022/08/06 01:29:15;;;;;;;1.30;1.20;;;19.80;60.10;;;;;;5020239;28;20535;-51
2022/08/06 01:32:06;;;;;;;3.63;1.83;;;19.80;60.50;;;;;;5014606;28;21479;-51
2022/08/06 01:34:40;;;;;;;2.57;1.70;;;19.80;61.00;;;;;;5046318;28;20461;-51
2022/08/06 01:37:20;;;;;;;3.33;1.60;;;19.80;61.60;;;;;;5059204;28;20477;-51
2022/08/06 01:39:52;;;;;;;2.20;1.77;;;19.80;61.60;;;;;;5060670;28;20489;-51
2022/08/06 01:42:32;;;;;;;3.00;1.70;;;19.80;61.60;;;;;;5062891;28;20524;-51
2022/08/06 01:45:06;;;;;;;1.60;1.30;;;19.80;61.80;;;;;;5057447;28;20465;-51
2022/08/06 01:47:37;;;;;;;3.40;1.70;;;19.80;61.60;;;;;;5058269;28;20492;-51
2022/08/06 01:50:26;;;;;;;2.37;1.60;;;19.70;61.80;;;;;;5041051;28;20546;-51
2022/08/06 01:52:57;;;;;;;1.70;1.60;;;19.70;61.90;;;;;;5056786;28;20512;-51
2022/08/06 01:55:29;;;;;;;5.50;1.90;;;19.70;62.10;;;;;;5058259;28;20527;-51
2022/08/06 01:58:20;;;;;;;1.57;1.47;;;19.60;62.00;;;;;;5045337;28;20489;-51
2022/08/06 02:00:59;;;;;;;2.40;1.60;;;19.50;62.50;;;;;;5045772;28;21014;-51
2022/08/06 02:03:46;;;;;;;1.60;1.50;;;19.40;62.80;;;;;;5062277;28;20503;-51
2022/08/06 02:06:34;;;;;;;3.03;1.63;;;19.40;63.20;;;;;;5061445;28;20465;-51
2022/08/06 02:09:05;;;;;;;2.20;1.67;;;19.30;63.40;;;;;;5056173;28;20841;-51
2022/08/06 02:12:00;;;;;;;1.67;1.23;;;19.30;63.50;;;;;;5045593;28;20533;-51
2022/08/06 02:14:39;;;;;;;2.70;2.07;;;19.30;63.70;;;;;;5061618;28;21052;-51
2022/08/06 02:17:12;;;;;;;2.03;1.50;;;19.20;63.90;;;;;;5056873;28;20470;-51
2022/08/06 02:19:45;;;;;;;1.77;1.67;;;19.20;63.70;;;;;;5053500;28;20487;-51
2022/08/06 02:22:27;;;;;;;1.40;1.30;;;19.20;63.50;;;;;;5059880;28;20536;-51
2022/08/06 02:25:03;;;;;;;2.00;1.80;;;19.10;63.40;;;;;;5069984;28;20520;-51
2022/08/06 02:27:46;;;;;;;3.03;1.77;;;19.10;63.30;;;;;;5061346;28;20507;-51
2022/08/06 02:30:25;;;;;;;2.37;2.17;;;19.10;63.00;;;;;;5056211;28;20462;-51
2022/08/06 02:32:57;;;;;;;2.60;1.90;;;19.00;62.80;;;;;;5056366;28;20478;-51
2022/08/06 02:35:30;;;;;;;2.03;1.70;;;19.00;63.00;;;;;;5074336;28;20454;-51
2022/08/06 02:38:11;;;;;;;2.50;1.77;;;19.00;63.10;;;;;;5062775;28;20737;-51
2022/08/06 02:40:44;;;;;;;1.60;1.50;;;18.90;63.10;;;;;;5042335;28;20545;-51
2022/08/06 02:43:16;;;;;;;1.87;1.20;;;18.90;63.50;;;;;;5043980;28;20461;-51
2022/08/06 02:45:54;;;;;;;2.90;2.10;;;18.80;63.60;;;;;;5044020;28;20492;-51
2022/08/06 02:48:36;;;;;;;2.27;1.87;;;18.80;63.40;;;;;;5042943;28;20497;-51
2022/08/06 02:51:15;;;;;;;1.97;1.53;;;18.80;63.30;;;;;;5058185;28;20474;-48
2022/08/06 02:54:07;;;;;;;3.33;1.60;;;18.70;63.50;;;;;;5046148;28;20834;-51
2022/08/06 02:56:37;;;;;;;2.00;1.90;;;18.60;63.60;;;;;;5059258;28;20458;-51
2022/08/06 02:59:10;;;;;;;1.47;1.37;;;18.60;63.70;;;;;;5054948;28;20482;-51
2022/08/06 03:01:43;;;;;;;2.03;1.10;;;18.60;63.90;;;;;;5054941;28;20462;-51
2022/08/06 03:04:12;;;;;;;2.10;1.53;;;18.60;63.60;;;;;;5059848;28;20967;-51
2022/08/06 03:06:45;;;;;;;1.70;1.60;;;18.60;63.40;;;;;;5045327;28;20874;-51
2022/08/06 03:09:16;;;;;;;2.10;1.70;;;18.60;63.30;;;;;;5053564;28;20470;-51
2022/08/06 03:11:45;;;;;;;5.33;1.50;;;18.50;63.20;;;;;;5053470;28;20841;-51
2022/08/06 03:14:15;;;;;;;1.63;1.53;;;18.50;63.50;;;;;;5041030;28;20837;-51
2022/08/06 03:17:03;;;;;;;1.50;1.40;;;18.40;63.40;;;;;;5057906;28;21006;-51
2022/08/06 03:19:30;;;;;;;2.50;1.90;;;18.40;63.50;;;;;;5056047;28;20457;-51
2022/08/06 03:22:19;;;;;;;3.83;1.70;;;18.40;63.40;;;;;;5047547;28;20450;-51
2022/08/06 03:25:08;;;;;;;1.77;1.53;;;18.20;63.80;;;;;;5057891;28;20457;-51
2022/08/06 03:27:37;;;;;;;1.93;1.37;;;18.20;64.10;;;;;;5037016;28;20447;-51
2022/08/06 03:30:14;;;;;;;1.60;1.50;;;18.10;64.10;;;;;;5053918;28;21008;-51
2022/08/06 03:33:10;;;;;;;1.83;1.50;;;18.10;64.30;;;;;;5053995;28;20466;-51
2022/08/06 03:35:59;;;;;;;4.80;1.20;;;18.10;64.40;;;;;;5056545;28;20466;-51
2022/08/06 03:38:28;;;;;;;2.80;1.40;;;18.10;64.20;;;;;;5053341;28;20498;-51
2022/08/06 03:40:58;;;;;;;1.60;1.50;;;18.10;64.30;;;;;;5040436;28;20493;-51
2022/08/06 03:43:27;;;;;;;1.80;1.53;;;18.00;64.50;;;;;;5055228;28;20461;-51
2022/08/06 03:46:20;;;;;;;1.70;1.60;;;18.00;64.60;;;;;;5043955;28;20458;-51
2022/08/06 03:48:50;;;;;;;1.60;1.40;;;18.00;64.70;;;;;;5055648;28;20508;-51
2022/08/06 03:51:20;;;;;;;1.40;1.30;;;17.90;64.70;;;;;;5056995;28;20454;-51
2022/08/06 03:54:08;;;;;;;1.27;1.17;;;17.90;63.90;;;;;;5054785;28;20864;-51
2022/08/06 03:56:41;;;;;;;1.53;1.00;;;17.90;62.60;;;;;;5056097;28;20492;-51
2022/08/06 03:59:17;;;;;;;1.30;1.20;;;17.90;62.50;;;;;;5053298;28;20512;-51
2022/08/06 04:01:46;;;;;;;1.77;1.30;;;17.90;62.40;;;;;;5054103;28;20497;-51
2022/08/06 04:04:17;;;;;;;1.57;1.30;;;17.90;62.10;;;;;;5045502;28;20512;-51
2022/08/06 04:06:55;;;;;;;3.40;1.30;;;17.90;62.00;;;;;;5058832;28;21031;-51
2022/08/06 04:09:23;;;;;;;1.80;1.70;;;17.80;61.90;;;;;;5060660;28;20450;-51
2022/08/06 04:12:11;;;;;;;3.57;1.50;;;17.90;62.20;;;;;;5052792;28;20454;-51
2022/08/06 04:14:59;;;;;;;1.83;1.40;;;17.90;62.20;;;;;;5044526;28;20801;-51
2022/08/06 04:17:27;;;;;;;1.47;1.37;;;17.80;62.00;;;;;;5069104;28;20468;-51
2022/08/06 04:20:00;;;;;;;3.03;2.77;;;17.90;62.20;;;;;;5040014;28;20899;-51
2022/08/06 04:22:28;;;;;;;1.80;1.70;;;17.90;62.30;;;;;;5058873;28;20461;-51
2022/08/06 04:25:15;;;;;;;2.80;2.47;;;17.90;62.80;;;;;;5058988;28;20480;-51
2022/08/06 04:27:44;;;;;;;2.03;1.90;;;17.80;63.00;;;;;;5043258;28;20447;-51
2022/08/06 04:30:23;;;;;;;1.73;1.63;;;17.80;63.00;;;;;;5056847;28;20467;-51
2022/08/06 04:32:52;;;;;;;2.80;2.00;;;17.70;63.00;;;;;;5044902;28;20467;-51
2022/08/06 04:35:29;;;;;;;2.63;2.43;;;17.70;63.10;;;;;;5053580;28;20453;-51
2022/08/06 04:38:20;;;;;;;2.50;2.00;;;17.70;63.10;;;;;;5052103;28;20458;-51
2022/08/06 04:40:57;;;;;;;2.73;1.67;;;17.70;63.00;;;;;;5055145;28;20496;-51
2022/08/06 04:43:41;;;;;;;2.60;2.13;;;17.70;63.20;;;;;;5061532;28;20998;-51
2022/08/06 04:46:20;;;;;;;3.30;2.07;;;17.60;63.50;;;;;;5055113;28;20446;-51
2022/08/06 04:48:47;;;;;;;2.00;1.90;;;17.60;63.50;;;;;;5061542;28;20459;-51
2022/08/06 04:51:23;;;;;;;2.93;2.40;;;17.60;63.70;;;;;;5063050;28;21047;-52
2022/08/06 04:54:09;;;;;;;4.50;2.10;;;17.60;63.70;;;;;;5056667;28;20872;-53
2022/08/06 04:56:39;;;;;;;2.77;1.40;;;17.50;64.10;;;;;;5056435;28;20457;-52
2022/08/06 04:59:17;;;;;;;2.50;1.37;;;17.60;63.80;;;;;;5044758;28;20538;-51
2022/08/06 05:01:45;;;;;;;1.60;1.37;;;17.50;63.20;;;;;;5056460;28;20497;-51
2022/08/06 05:04:29;;;;;;;1.77;1.17;;;17.50;63.10;;;;;;5057771;28;20830;-51
2022/08/06 05:07:19;;;;;;;2.03;0.97;;;17.50;62.90;;;;;;5062105;28;20445;-51
2022/08/06 05:09:48;;;;;;;2.30;1.17;;;17.50;62.60;;;;;;5058059;28;20492;-52
2022/08/06 05:12:25;;;;;;;4.20;1.67;;;17.60;62.70;;;;;;5048361;28;20455;-51
2022/08/06 05:15:10;;;;;;;1.47;1.30;;;17.60;62.80;;;;;;5061961;28;20496;-51
2022/08/06 05:17:44;;;;;;;1.90;1.80;;;17.70;62.60;;;;;;5060110;28;20454;-52
2022/08/06 05:20:19;;;;;;;4.97;1.40;;;17.70;62.50;;;;;;5061696;28;21075;-52
2022/08/06 05:23:02;;;;;;;1.13;1.03;;;17.70;62.20;;;;;;5062446;28;20468;-51
2022/08/06 05:25:45;;;;;;;1.00;1.00;;;17.80;62.10;;;;;;5060180;28;20853;-52
2022/08/06 05:28:22;;;;;;;1.47;1.37;;;17.80;62.50;;;;;;5055925;28;20516;-51
2022/08/06 05:30:54;;;;;;;1.20;1.10;;;17.80;61.80;;;;;;5060643;28;20469;-53
2022/08/06 05:33:24;;;;;;;1.30;1.20;;;17.90;61.60;;;;;;5043715;28;20450;-51
2022/08/06 05:35:55;;;;;;;2.70;1.13;;;18.00;62.10;;;;;;5071825;28;20465;-51
2022/08/06 05:38:32;;;;;;;1.60;1.40;;;18.00;61.50;;;;;;5047310;28;20458;-51
2022/08/06 05:41:06;;;;;;;2.80;1.63;;;18.10;60.80;;;;;;5060318;28;20487;-51
2022/08/06 05:43:35;;;;;;;1.60;1.10;;;18.10;61.00;;;;;;5044110;28;20548;-51
2022/08/06 05:46:23;;;;;;;1.70;1.00;;;18.10;60.80;;;;;;5056991;28;20523;-50
2022/08/06 05:49:03;;;;;;;1.40;1.20;;;18.20;60.70;;;;;;5057069;28;20558;-51
2022/08/06 05:52:03;;;;;;;2.13;1.67;;;18.20;60.70;;;;;;5070182;28;20492;-51
2022/08/06 05:54:41;;;;;;;2.63;1.23;;;18.30;60.70;;;;;;5033584;28;20465;-51
2022/08/06 05:57:43;;;;;;;2.30;1.43;;;18.40;60.80;;;;;;5056909;28;20491;-51
2022/08/06 06:00:21;;;;;;;1.00;1.00;;;18.50;60.50;;;;;;5055649;28;20607;-51
2022/08/06 06:03:13;;;;;;;2.40;1.10;;;18.60;60.30;;;;;;5057937;28;20987;-51
2022/08/06 06:05:56;;;;;;;4.27;1.57;;;18.60;59.90;;;;;;5057688;28;20991;-51
2022/08/06 06:08:43;;;;;;;1.33;1.27;;;18.70;59.40;;;;;;5047229;28;20497;-51
2022/08/06 06:11:28;;;;;;;2.13;1.43;;;18.70;59.30;;;;;;5048518;28;20453;-51
2022/08/06 06:14:35;;;;;;;1.53;1.43;;;18.80;59.50;;;;;;5049762;28;20458;-51
2022/08/06 06:17:06;;;;;;;2.40;1.50;;;18.80;59.60;;;;;;5055668;28;20462;-51
2022/08/06 06:19:56;;;;;;;2.40;1.10;;;18.90;59.60;;;;;;5059606;28;20481;-51
2022/08/06 06:22:30;;;;;;;1.90;1.50;;;18.90;59.20;;;;;;5061043;28;20835;-51
2022/08/06 06:25:07;;;;;;;1.40;1.30;;;19.00;59.00;;;;;;5056265;28;20575;-51
2022/08/06 06:27:44;;;;;;;1.33;1.10;;;19.10;59.00;;;;;;5059805;28;20462;-51
2022/08/06 06:30:32;;;;;;;2.83;1.40;;;19.10;58.70;;;;;;5041007;28;20831;-52
2022/08/06 06:33:20;;;;;;;2.00;1.00;;;19.20;58.80;;;;;;5061621;28;20462;-52
2022/08/06 06:36:34;;;;;;;1.27;1.23;;;19.30;58.60;;;;;;5046764;28;20451;-52
2022/08/06 06:39:20;;;;;;;2.33;1.20;;;19.40;58.50;;;;;;5057316;28;20467;-52
2022/08/06 06:42:03;;;;;;;1.73;1.20;;;19.50;58.40;;;;;;5056428;28;20485;-52
2022/08/06 06:44:40;;;;;;;1.30;1.20;;;19.60;58.20;;;;;;5059397;28;20442;-51
2022/08/06 06:47:36;;;;;;;1.50;1.37;;;19.70;58.40;;;;;;5072056;28;20807;-51
2022/08/06 06:50:18;;;;;;;1.33;1.23;;;19.90;57.90;;;;;;5041395;28;20472;-52
2022/08/06 06:52:49;;;;;;;1.60;1.17;;;20.00;57.20;;;;;;5054813;28;20455;-51
2022/08/06 06:55:36;;;;;;;2.50;1.10;;;20.10;57.20;;;;;;5042466;28;20453;-51
2022/08/06 06:58:38;;;;;;;2.03;1.13;;;20.20;56.80;;;;;;5052022;28;20489;-51
2022/08/06 07:01:15;;;;;;;0.70;0.70;;;20.30;56.80;;;;;;5050421;28;20494;-51
2022/08/06 07:03:56;;;;;;;2.27;1.23;;;20.40;56.60;;;;;;5055399;28;20487;-51
2022/08/06 07:06:25;;;;;;;1.83;1.20;;;20.50;56.30;;;;;;5053922;28;21057;-51
2022/08/06 07:08:59;;;;;;;1.00;0.77;;;20.50;55.60;;;;;;5060623;28;20477;-51
2022/08/06 07:11:44;;;;;;;1.57;1.00;;;20.60;55.60;;;;;;5054557;28;20517;-51
2022/08/06 07:14:31;;;;;;;0.93;0.87;;;20.70;55.40;;;;;;5046239;28;20465;-51
2022/08/06 07:17:05;;;;;;;2.00;0.87;;;20.90;54.90;;;;;;5044865;28;20454;-51
2022/08/06 07:19:56;;;;;;;2.97;1.07;;;21.00;54.40;;;;;;5039638;28;20449;-50
2022/08/06 07:22:25;;;;;;;0.73;0.70;;;21.10;54.60;;;;;;5056980;28;20539;-50
2022/08/06 07:24:57;;;;;;;3.10;1.00;;;21.20;54.40;;;;;;5060297;28;20455;-50
2022/08/06 07:27:30;;;;;;;0.93;0.90;;;21.40;54.40;;;;;;5056733;28;20466;-49
2022/08/06 07:30:15;;;;;;;1.57;1.00;;;21.50;53.50;;;;;;5056173;28;20469;-50
2022/08/06 07:32:44;;;;;;;0.80;0.80;;;21.60;53.50;;;;;;5060315;28;20461;-50
2022/08/06 07:35:19;;;;;;;4.13;1.03;;;21.70;53.50;;;;;;5053932;28;20512;-50
2022/08/06 07:37:56;;;;;;;1.20;1.07;;;21.80;52.90;;;;;;5050690;28;20582;-50
2022/08/06 07:40:45;;;;;;;2.23;1.07;;;22.00;53.20;;;;;;5055127;28;20483;-50
2022/08/06 07:43:22;;;;;;;1.13;0.87;;;22.10;52.70;;;;;;5045676;28;21032;-50
2022/08/06 07:46:01;;;;;;;1.43;0.77;;;22.30;52.10;;;;;;5051754;28;20996;-50
2022/08/06 07:48:32;;;;;;;1.30;0.80;;;22.40;52.00;;;;;;5054589;28;20457;-49
2022/08/06 07:51:02;;;;;;;2.47;0.90;;;22.60;51.80;;;;;;5057727;28;20465;-50
2022/08/06 07:53:32;;;;;;;1.90;0.60;;;22.70;49.50;;;;;;5054279;28;20857;-50
2022/08/06 07:56:19;;;;;;;1.47;0.97;;;22.80;49.70;;;;;;5054844;28;20462;-50
2022/08/06 07:58:46;;;;;;;2.03;1.10;;;22.80;48.60;;;;;;5054388;28;20482;-50
2022/08/06 08:01:14;;;;;;;1.30;0.80;;;22.90;48.60;;;;;;5043741;28;21033;-50
2022/08/06 08:07:04;;;;;;;0.80;0.70;;;23.00;49.10;;;;;;4974781;28;20511;-48
2022/08/06 08:09:35;;;;;;;1.50;1.00;;;23.10;48.10;;;;;;4980064;28;20472;-49
2022/08/06 08:12:23;;;;;;;2.00;0.80;;;23.20;47.40;;;;;;5036398;28;20461;-49
2022/08/06 08:15:03;;;;;;;1.47;0.70;;;23.40;46.50;;;;;;5057950;28;20473;-49
2022/08/06 08:17:31;;;;;;;1.50;0.70;;;23.50;46.40;;;;;;5052869;28;20541;-49
2022/08/06 08:20:12;;;;;;;1.53;0.90;;;23.60;44.80;;;;;;5060333;28;20481;-49
2022/08/06 08:22:44;;;;;;;2.00;0.70;;;23.70;44.50;;;;;;5056818;28;20489;-48
2022/08/06 08:25:17;;;;;;;1.87;1.10;;;23.70;45.10;;;;;;5045928;28;20961;-49
2022/08/06 08:28:05;;;;;;;0.80;0.80;;;23.80;45.30;;;;;;5065281;28;20456;-49
2022/08/06 08:30:41;;;;;;;0.77;0.57;;;23.90;45.80;;;;;;5050796;28;20456;-49
2022/08/06 08:33:08;;;;;;;1.77;0.67;;;24.00;46.20;;;;;;5060521;28;20489;-49
2022/08/06 08:35:43;;;;;;;3.10;1.20;;;24.10;45.80;;;;;;5060447;28;20478;-49
2022/08/06 08:38:32;;;;;;;1.93;0.80;;;24.30;45.90;;;;;;5065799;28;20988;-49
2022/08/06 08:41:03;;;;;;;4.30;0.83;;;24.30;45.60;;;;;;5063148;28;20482;-49
2022/08/06 08:43:40;;;;;;;2.50;0.97;;;24.30;45.80;;;;;;5044564;28;20482;-49
2022/08/06 08:46:28;;;;;;;1.07;0.60;;;24.40;45.50;;;;;;5056955;28;20464;-49
2022/08/06 08:49:00;;;;;;;1.40;0.80;;;24.40;45.40;;;;;;5057636;28;21018;-49
2022/08/06 08:51:28;;;;;;;1.80;0.90;;;24.50;45.60;;;;;;5053076;28;20587;-49
2022/08/06 08:54:05;;;;;;;1.97;1.00;;;24.40;45.70;;;;;;5047713;28;20598;-49
2022/08/06 08:56:34;;;;;;;4.63;1.00;;;24.40;45.80;;;;;;5062449;28;20460;-49
2022/08/06 08:59:21;;;;;;;1.23;0.60;;;24.50;45.00;;;;;;5048462;28;20461;-49
2022/08/06 09:02:11;;;;;;;1.00;0.90;;;24.60;45.00;;;;;;5045270;28;20586;-49
2022/08/06 09:04:40;;;;;;;1.07;0.70;;;24.70;44.20;;;;;;5041154;28;20996;-49
2022/08/06 09:07:10;;;;;;;2.40;1.10;;;24.80;43.50;;;;;;5057817;28;20465;-49
2022/08/06 09:09:58;;;;;;;1.10;0.70;;;24.90;43.40;;;;;;5053728;28;20453;-49
2022/08/06 09:12:27;;;;;;;1.17;0.50;;;25.00;43.20;;;;;;5059593;28;20507;-49
2022/08/06 09:15:02;;;;;;;1.13;1.13;;;24.90;42.80;;;;;;5059088;28;20461;-49
2022/08/06 09:17:30;;;;;;;1.93;0.70;;;25.00;43.50;;;;;;5072950;28;21125;-49
2022/08/06 09:20:16;;;;;;;1.20;0.87;;;25.00;42.10;;;;;;5044897;28;20694;-49
2022/08/06 09:22:49;;;;;;;3.90;1.10;;;25.00;42.90;;;;;;5023285;28;20507;-49
2022/08/06 09:25:41;;;;;;;1.60;0.77;;;25.00;42.80;;;;;;5052122;28;20461;-49
2022/08/06 09:28:30;;;;;;;2.20;2.00;;;25.00;43.50;;;;;;5057888;28;20458;-49
2022/08/06 09:31:09;;;;;;;0.90;0.80;;;25.00;43.30;;;;;;5056926;28;20466;-49
2022/08/06 09:34:03;;;;;;;2.10;0.67;;;25.00;43.00;;;;;;5069924;28;20450;-49
2022/08/06 09:36:50;;;;;;;2.20;0.60;;;25.10;42.30;;;;;;5063139;28;20433;-49
2022/08/06 09:39:40;;;;;;;1.23;0.80;;;25.10;41.90;;;;;;5060376;28;20820;-49
2022/08/06 09:42:48;;;;;;;0.93;0.90;;;25.10;42.60;;;;;;5056468;28;21241;-49
2022/08/06 09:45:21;;;;;;;1.10;0.70;;;25.30;42.50;;;;;;5055549;28;20552;-49
2022/08/06 09:48:09;;;;;;;1.73;0.90;;;25.40;42.30;;;;;;5055197;28;20453;-49
2022/08/06 09:50:48;;;;;;;1.70;1.03;;;25.50;42.10;;;;;;5056111;28;21020;-49
2022/08/06 09:53:21;;;;;;;2.10;0.70;;;25.60;42.30;;;;;;5026407;28;20464;-49
2022/08/06 09:55:49;;;;;;;0.80;0.80;;;25.70;42.40;;;;;;5057212;28;20473;-49
2022/08/06 09:58:28;;;;;;;3.60;1.10;;;25.90;42.30;;;;;;5043707;28;20494;-49
2022/08/06 10:01:10;;;;;;;1.40;0.80;;;25.90;41.20;;;;;;5058417;28;20980;-49
2022/08/06 10:03:49;;;;;;;2.23;0.90;;;25.80;41.20;;;;;;5060782;28;20475;-49
2022/08/06 10:06:49;;;;;;;1.07;0.70;;;25.60;41.50;;;;;;5056845;28;20458;-49
2022/08/06 10:09:17;;;;;;;1.60;0.63;;;25.50;41.80;;;;;;5053602;28;20469;-49
2022/08/06 10:12:17;;;;;;;1.53;0.60;;;25.50;42.00;;;;;;5057112;28;20461;-49
2022/08/06 10:14:44;;;;;;;0.87;0.60;;;25.60;41.20;;;;;;5045799;28;20472;-49
2022/08/06 10:17:16;;;;;;;2.43;1.37;;;25.70;40.80;;;;;;5056920;28;20469;-49
2022/08/06 10:20:03;;;;;;;0.80;0.70;;;26.00;40.60;;;;;;5046754;28;20726;-49
2022/08/06 10:22:36;;;;;;;0.90;0.60;;;26.10;40.40;;;;;;5039831;28;20484;-49
2022/08/06 10:25:07;;;;;;;0.77;0.57;;;26.40;39.90;;;;;;5055733;28;20842;-49
2022/08/06 10:27:39;;;;;;;2.20;0.80;;;26.50;39.60;;;;;;5055368;28;20512;-49
2022/08/06 10:30:08;;;;;;;1.80;0.60;;;26.60;39.40;;;;;;5057322;28;20466;-49
2022/08/06 10:32:41;;;;;;;1.87;0.77;;;26.50;39.60;;;;;;5074665;28;20459;-50
2022/08/06 10:35:11;;;;;;;0.60;0.60;;;26.40;39.70;;;;;;5043077;28;20472;-49
2022/08/06 10:37:43;;;;;;;1.80;1.00;;;26.30;39.90;;;;;;5055428;28;20483;-49
2022/08/06 10:40:26;;;;;;;0.73;0.73;;;26.10;40.30;;;;;;5054992;28;20457;-49
2022/08/06 10:43:01;;;;;;;1.33;0.53;;;25.90;40.80;;;;;;5055758;28;21041;-49
2022/08/06 10:45:30;;;;;;;3.03;0.83;;;25.80;40.90;;;;;;5060369;28;20456;-49
2022/08/06 10:48:16;;;;;;;2.27;0.60;;;25.60;40.60;;;;;;5046589;28;20469;-48
2022/08/06 10:51:05;;;;;;;1.13;0.80;;;25.50;41.20;;;;;;5046681;28;20511;-49
2022/08/06 10:53:34;;;;;;;4.30;1.00;;;25.50;41.50;;;;;;5042941;28;20947;-49
2022/08/06 10:56:22;;;;;;;1.33;0.70;;;25.40;41.50;;;;;;5046190;28;21031;-49
2022/08/06 10:58:55;;;;;;;1.10;0.50;;;25.30;41.60;;;;;;5060146;28;21088;-49
2022/08/06 11:01:44;;;;;;;1.73;0.60;;;25.10;41.70;;;;;;5055298;28;20526;-49
2022/08/06 11:04:29;;;;;;;0.70;0.50;;;25.00;41.80;;;;;;5051233;28;20462;-49
2022/08/06 11:06:59;;;;;;;1.37;0.60;;;24.80;41.90;;;;;;5057970;28;20453;-49
2022/08/06 11:09:32;;;;;;;4.23;0.90;;;24.80;42.10;;;;;;5056787;28;20500;-49
2022/08/06 11:12:43;;;;;;;1.00;0.83;;;24.80;41.90;;;;;;5055559;28;20508;-48
2022/08/06 11:15:18;;;;;;;2.10;0.63;;;24.80;42.00;;;;;;5054271;28;20555;-49
2022/08/06 11:18:03;;;;;;;1.00;0.90;;;24.70;41.60;;;;;;5057563;28;20552;-49
2022/08/06 11:20:36;;;;;;;0.80;0.60;;;24.60;41.00;;;;;;5057546;28;20473;-49
2022/08/06 11:23:12;;;;;;;0.70;0.60;;;24.50;41.50;;;;;;5053617;28;20485;-49
2022/08/06 11:26:02;;;;;;;2.87;0.70;;;24.50;42.00;;;;;;5058255;28;20449;-49
2022/08/06 11:28:33;;;;;;;2.30;0.53;;;24.50;42.00;;;;;;5039654;28;20494;-50
2022/08/06 11:31:02;;;;;;;2.10;0.93;;;24.40;42.10;;;;;;5053495;28;20458;-49
2022/08/06 11:33:35;;;;;;;1.10;0.70;;;24.50;42.30;;;;;;5058047;28;20449;-48
2022/08/06 11:36:26;;;;;;;1.17;0.70;;;24.50;41.90;;;;;;5056704;28;20459;-49
2022/08/06 11:38:52;;;;;;;0.80;0.80;;;24.50;41.70;;;;;;5049172;28;20463;-49
2022/08/06 11:41:30;;;;;;;0.53;0.53;;;24.40;41.20;;;;;;5058075;28;20457;-49
2022/08/06 11:44:18;;;;;;;3.97;1.00;;;24.40;40.60;;;;;;5057521;28;20445;-49
2022/08/06 11:47:11;;;;;;;1.00;0.70;;;24.40;40.00;;;;;;5053697;28;20549;-49
2022/08/06 11:49:47;;;;;;;1.93;0.80;;;24.40;40.30;;;;;;5053988;28;20516;-49
2022/08/06 11:52:34;;;;;;;1.03;0.97;;;24.40;40.60;;;;;;5055687;28;20987;-49
2022/08/06 11:55:10;;;;;;;0.80;0.50;;;24.40;40.90;;;;;;5055263;28;20820;-49
2022/08/06 11:57:48;;;;;;;3.13;0.70;;;24.30;41.20;;;;;;5047514;28;20481;-49
2022/08/06 12:00:22;;;;;;;6.63;1.10;;;24.30;40.80;;;;;;5052013;28;20777;-49
2022/08/06 12:02:53;;;;;;;1.47;0.77;;;24.30;41.30;;;;;;5057367;28;20740;-49
2022/08/06 12:05:22;;;;;;;0.90;0.90;;;24.30;41.20;;;;;;5067698;28;20985;-49
2022/08/06 12:08:11;;;;;;;2.83;0.77;;;24.40;41.00;;;;;;5041405;28;20454;-49
2022/08/06 12:11:20;;;;;;;1.43;0.83;;;24.40;41.60;;;;;;5048687;28;20454;-49
2022/08/06 12:13:49;;;;;;;1.43;0.60;;;24.40;41.70;;;;;;5048283;28;20469;-49
2022/08/06 12:16:38;;;;;;;1.10;0.77;;;24.40;41.20;;;;;;5050652;28;20455;-50
2022/08/06 12:19:12;;;;;;;1.60;0.70;;;24.30;41.70;;;;;;5050357;28;20459;-50
2022/08/06 12:21:40;;;;;;;0.97;0.80;;;24.30;41.60;;;;;;5030213;28;20469;-49
2022/08/06 12:24:21;;;;;;;1.27;0.70;;;24.20;41.80;;;;;;5052880;28;20466;-49
2022/08/06 12:26:48;;;;;;;2.30;0.83;;;24.10;42.00;;;;;;5054853;28;20457;-49
2022/08/06 12:29:15;;;;;;;2.53;0.90;;;24.10;41.40;;;;;;5045171;28;20461;-49
2022/08/06 12:31:42;;;;;;;1.87;0.80;;;24.10;41.20;;;;;;5035744;28;20458;-49
2022/08/06 12:34:27;;;;;;;0.73;0.73;;;24.20;41.40;;;;;;5066725;28;20457;-49
2022/08/06 12:36:58;;;;;;;0.83;0.73;;;24.20;41.40;;;;;;5054767;28;20462;-49
2022/08/06 12:40:23;;;;;;;1.20;0.60;;;24.30;41.20;;;;;;5051445;28;20493;-49
2022/08/06 12:42:24;;;;;;;4.13;1.10;;;24.20;40.40;;;;;;5051944;28;20505;-49
2022/08/06 12:45:11;;;;;;;1.10;0.80;;;24.30;41.00;;;;;;5045088;28;20449;-49
2022/08/06 12:47:59;;;;;;;2.30;0.70;;;24.30;40.80;;;;;;5053913;28;20468;-49
2022/08/06 12:50:33;;;;;;;1.57;0.60;;;24.40;40.60;;;;;;5048595;28;20823;-49
2022/08/06 12:53:12;;;;;;;1.90;0.70;;;24.40;40.90;;;;;;5052691;28;20489;-49
2022/08/06 12:55:50;;;;;;;0.73;0.73;;;24.40;40.10;;;;;;5051628;28;20460;-49
2022/08/06 12:58:29;;;;;;;0.90;0.70;;;24.40;40.30;;;;;;5058106;28;20484;-49
2022/08/06 13:01:16;;;;;;;2.97;0.80;;;24.40;40.60;;;;;;5035101;28;20466;-49
2022/08/06 13:04:06;;;;;;;1.27;0.70;;;24.40;40.00;;;;;;5050909;28;20473;-49
2022/08/06 13:06:36;;;;;;;0.77;0.70;;;24.40;40.10;;;;;;5049728;28;20454;-49
2022/08/06 13:09:03;;;;;;;1.00;0.70;;;24.40;40.40;;;;;;5036672;28;20953;-49
2022/08/06 13:11:35;;;;;;;1.13;0.73;;;24.40;40.10;;;;;;5059154;28;20528;-49
2022/08/06 13:14:11;;;;;;;0.70;0.63;;;24.40;39.60;;;;;;5061954;28;20481;-49
2022/08/06 13:16:48;;;;;;;2.20;0.50;;;24.40;40.40;;;;;;5042340;28;20869;-49
2022/08/06 13:19:23;;;;;;;0.90;0.80;;;24.50;40.10;;;;;;5048132;28;20508;-48
2022/08/06 13:22:07;;;;;;;0.90;0.90;;;24.60;39.70;;;;;;5062759;28;20456;-49
2022/08/06 13:24:34;;;;;;;0.93;0.60;;;24.60;39.90;;;;;;5063246;28;20448;-49
2022/08/06 13:27:02;;;;;;;0.80;0.63;;;24.60;39.90;;;;;;5047404;28;20488;-49
2022/08/06 13:29:34;;;;;;;2.40;0.87;;;24.60;39.60;;;;;;5057098;28;20461;-49
2022/08/06 13:32:25;;;;;;;2.23;0.60;;;24.60;39.40;;;;;;5057778;28;20487;-49
2022/08/06 13:35:11;;;;;;;1.17;0.80;;;24.50;38.50;;;;;;5061631;28;20457;-49
2022/08/06 13:37:51;;;;;;;1.23;0.70;;;24.60;38.90;;;;;;5060254;28;20456;-49
2022/08/06 13:40:48;;;;;;;2.77;1.00;;;24.60;38.80;;;;;;5039854;28;20480;-49
2022/08/06 13:43:35;;;;;;;1.50;0.70;;;24.70;38.50;;;;;;5058620;28;20584;-49
2022/08/06 13:46:17;;;;;;;0.50;0.40;;;24.60;38.40;;;;;;5061716;28;20456;-49
2022/08/06 13:48:58;;;;;;;2.83;0.83;;;24.70;38.10;;;;;;5061246;28;20468;-49
2022/08/06 13:51:30;;;;;;;0.90;0.70;;;24.60;37.70;;;;;;5056354;28;20457;-49